createdAt,value
2018-04-13T00:02:16.922Z,37.97
2018-04-13T00:04:44.819Z,35.70
2018-04-13T00:07:12.341Z,38.80
2018-04-13T00:09:40.623Z,35.95
2018-04-13T00:12:08.893Z,36.72
2018-04-13T00:14:37.216Z,38.28
2018-04-13T00:17:04.964Z,37.25
2018-04-13T00:19:32.483Z,36.00
2018-04-13T00:22:00.039Z,37.45
2018-04-13T00:24:27.572Z,37.35
2018-04-13T00:26:55.104Z,35.05
2018-04-13T00:29:22.674Z,36.35
2018-04-13T00:31:50.214Z,37.30
2018-04-13T00:34:17.768Z,37.45
2018-04-13T00:36:45.299Z,35.05
2018-04-13T00:39:12.814Z,37.90
2018-04-13T00:41:40.576Z,37.58
2018-04-13T00:44:08.236Z,35.63
2018-04-13T00:46:35.772Z,36.85
2018-04-13T00:49:04.074Z,37.75
2018-04-13T00:51:31.634Z,36.25
2018-04-13T00:53:59.169Z,36.92
2018-04-13T00:56:28.295Z,38.72
2018-04-13T00:58:55.817Z,35.00
2018-04-13T01:01:23.351Z,38.13
2018-04-13T01:03:50.847Z,38.00
2018-04-13T01:06:19.140Z,34.35
2018-04-13T01:08:46.701Z,40.08
2018-04-13T01:11:14.217Z,36.00
2018-04-13T01:13:41.838Z,36.30
2018-04-13T01:16:09.353Z,33.50
2018-04-13T01:18:37.614Z,40.15
2018-04-13T01:21:05.121Z,39.72
2018-04-13T01:23:32.657Z,34.33
2018-04-13T01:26:00.226Z,34.45
2018-04-13T01:28:27.745Z,36.88
2018-04-13T01:30:55.283Z,36.60
2018-04-13T01:33:23.119Z,36.88
2018-04-13T01:35:50.629Z,32.60
2018-04-13T01:38:18.203Z,34.80
2018-04-13T01:40:47.361Z,36.67
2018-04-13T01:43:15.358Z,36.13
2018-04-13T01:45:42.889Z,35.28
2018-04-13T01:48:10.399Z,35.88
2018-04-13T01:50:38.709Z,35.13
2018-04-13T01:53:06.300Z,34.03
2018-04-13T01:55:33.816Z,34.00
2018-04-13T01:58:01.325Z,35.10
2018-04-13T02:00:28.833Z,36.67
2018-04-13T02:02:56.336Z,34.00
2018-04-13T02:05:23.934Z,36.78
2018-04-13T02:07:52.218Z,34.22
2018-04-13T02:10:20.268Z,36.83
2018-04-13T02:12:47.785Z,35.40
2018-04-13T02:15:15.323Z,36.15
2018-04-13T02:17:42.842Z,35.33
2018-04-13T02:20:10.365Z,35.15
2018-04-13T02:22:37.872Z,36.10
2018-04-13T02:25:05.410Z,39.22
2018-04-13T02:27:32.978Z,34.28
2018-04-13T02:30:00.503Z,37.97
2018-04-13T02:32:28.049Z,36.60
2018-04-13T02:34:55.576Z,34.88
2018-04-13T02:37:23.875Z,36.08
2018-04-13T02:39:51.409Z,35.05
2018-04-13T02:42:18.935Z,34.70
2018-04-13T02:44:46.461Z,34.78
2018-04-13T02:47:13.987Z,37.92
2018-04-13T02:49:41.494Z,36.85
2018-04-13T02:52:09.015Z,38.22
2018-04-13T02:54:38.365Z,35.78
2018-04-13T02:57:05.892Z,36.95
2018-04-13T02:59:33.455Z,35.15
2018-04-13T03:02:01.009Z,37.97
2018-04-13T03:04:28.536Z,36.40
2018-04-13T03:06:56.085Z,35.25
2018-04-13T03:09:23.646Z,36.22
2018-04-13T03:11:51.171Z,35.78
2018-04-13T03:14:18.681Z,36.03
2018-04-13T03:16:46.205Z,37.83
2018-04-13T03:19:13.724Z,38.53
2018-04-13T03:21:42.006Z,39.70
2018-04-13T03:24:10.296Z,38.60
2018-04-13T03:26:37.820Z,37.85
2018-04-13T03:29:05.346Z,36.45
2018-04-13T03:31:32.855Z,37.70
2018-04-13T03:34:01.157Z,41.37
2018-04-13T03:36:28.674Z,37.20
2018-04-13T03:38:56.221Z,34.47
2018-04-13T03:41:23.757Z,37.65
2018-04-13T03:43:54.298Z,36.38
2018-04-13T03:46:21.787Z,36.25
2018-04-13T03:48:49.309Z,35.83
2018-04-13T03:51:16.834Z,36.55
2018-04-13T03:53:44.351Z,33.63
2018-04-13T03:56:11.933Z,36.25
2018-04-13T03:58:40.246Z,38.22
2018-04-13T04:01:07.761Z,38.33
2018-04-13T04:03:35.374Z,36.25
2018-04-13T04:06:04.765Z,36.10
2018-04-13T04:08:32.313Z,38.20
2018-04-13T04:10:59.918Z,32.65
2018-04-13T04:13:27.419Z,35.40
2018-04-13T04:15:54.961Z,37.65
2018-04-13T04:18:22.465Z,36.72
2018-04-13T04:21:01.908Z,36.92
2018-04-13T04:23:41.139Z,35.92
2018-04-13T04:26:22.262Z,37.97
2018-04-13T04:28:49.792Z,36.17
2018-04-13T04:31:17.362Z,35.85
2018-04-13T04:33:44.888Z,36.80
2018-04-13T04:36:12.448Z,34.75
2018-04-13T04:38:39.967Z,35.67
2018-04-13T04:41:07.491Z,33.88
2018-04-13T04:43:34.992Z,36.88
2018-04-13T04:46:03.279Z,35.30
2018-04-13T04:48:31.555Z,35.30
2018-04-13T04:50:59.838Z,35.75
2018-04-13T04:53:28.127Z,39.55
2018-04-13T04:55:55.639Z,40.30
2018-04-13T04:58:23.140Z,36.85
2018-04-13T05:00:50.660Z,35.53
2018-04-13T05:03:18.199Z,38.65
2018-04-13T05:05:45.784Z,37.80
2018-04-13T05:08:14.513Z,35.45
2018-04-13T05:10:42.048Z,33.80
2018-04-13T05:13:09.613Z,34.05
2018-04-13T05:15:37.910Z,35.35
2018-04-13T05:18:05.413Z,32.95
2018-04-13T05:20:32.929Z,34.72
2018-04-13T05:23:00.453Z,33.95
2018-04-13T05:25:28.763Z,36.03
2018-04-13T05:27:57.041Z,35.08
2018-04-13T05:30:24.573Z,33.28
2018-04-13T05:32:52.111Z,34.75
2018-04-13T05:35:20.009Z,41.22
2018-04-13T05:37:47.694Z,35.40
2018-04-13T05:40:15.214Z,34.47
2018-04-13T05:42:42.766Z,34.25
2018-04-13T05:45:11.061Z,31.90
2018-04-13T05:47:38.598Z,36.10
2018-04-13T05:50:06.179Z,37.63
2018-04-13T05:52:34.471Z,36.35
2018-04-13T05:55:02.825Z,37.25
2018-04-13T05:57:30.360Z,34.67
2018-04-13T05:59:57.897Z,34.45
2018-04-13T06:02:25.433Z,33.25
2018-04-13T06:04:52.947Z,32.08
2018-04-13T06:07:20.829Z,34.05
2018-04-13T06:09:49.442Z,32.70
2018-04-13T06:12:17.067Z,34.70
2018-04-13T06:14:45.423Z,28.50
2018-04-13T06:17:13.252Z,30.98
2018-04-13T06:19:41.556Z,29.00
2018-04-13T06:22:09.153Z,29.02
2018-04-13T06:24:36.662Z,28.45
2018-04-13T06:27:04.188Z,31.55
2018-04-13T06:29:31.902Z,27.80
2018-04-13T06:31:59.452Z,30.40
2018-04-13T06:34:26.960Z,30.00
2018-04-13T06:36:55.123Z,31.52
2018-04-13T06:39:22.056Z,31.58
2018-04-13T06:41:49.579Z,31.73
2018-04-13T06:44:17.089Z,34.10
2018-04-13T06:46:44.594Z,31.37
2018-04-13T06:49:12.281Z,32.25
2018-04-13T06:51:39.818Z,31.58
2018-04-13T06:54:08.094Z,29.50
2018-04-13T06:56:36.413Z,31.70
2018-04-13T06:59:03.937Z,33.05
2018-04-13T07:01:31.471Z,31.62
2018-04-13T07:03:59.808Z,30.60
2018-04-13T07:06:27.362Z,29.98
2018-04-13T07:08:54.913Z,28.62
2018-04-13T07:11:22.455Z,30.48
2018-04-13T07:13:49.988Z,32.42
2018-04-13T07:16:18.104Z,31.65
2018-04-13T07:18:45.650Z,32.50
2018-04-13T07:21:13.179Z,32.05
2018-04-13T07:23:40.704Z,28.62
2018-04-13T07:26:08.246Z,28.67
2018-04-13T07:28:35.783Z,30.40
2018-04-13T07:31:04.086Z,31.98
2018-04-13T07:33:31.642Z,31.27
2018-04-13T07:35:59.154Z,32.15
2018-04-13T07:38:26.694Z,30.55
2018-04-13T07:40:54.214Z,31.27
2018-04-13T07:43:21.875Z,29.27
2018-04-13T07:45:49.404Z,32.22
2018-04-13T07:48:18.209Z,30.35
2018-04-13T07:50:45.245Z,32.38
2018-04-13T07:53:12.767Z,33.88
2018-04-13T07:55:40.337Z,32.55
2018-04-13T07:58:07.847Z,31.30
2018-04-13T08:00:35.377Z,32.22
2018-04-13T08:03:03.717Z,33.45
2018-04-13T08:05:31.254Z,38.55
2018-04-13T08:07:58.777Z,35.10
2018-04-13T08:10:27.118Z,34.90
2018-04-13T08:12:54.629Z,36.53
2018-04-13T08:15:22.142Z,33.60
2018-04-13T08:17:49.718Z,35.60
2018-04-13T08:20:17.255Z,33.47
2018-04-13T08:22:44.803Z,34.85
2018-04-13T08:25:12.329Z,33.58
2018-04-13T08:27:39.908Z,34.10
2018-04-13T08:30:07.433Z,35.35
2018-04-13T08:32:35.732Z,38.78
2018-04-13T08:35:03.269Z,35.75
2018-04-13T08:37:31.555Z,35.28
2018-04-13T08:39:59.867Z,36.70
2018-04-13T08:42:27.408Z,37.45
2018-04-13T08:44:55.035Z,34.17
2018-04-13T08:47:22.557Z,36.63
2018-04-13T08:49:50.102Z,37.17
2018-04-13T08:52:17.637Z,34.83
2018-04-13T08:54:45.240Z,35.15
2018-04-13T08:57:12.779Z,33.72
2018-04-13T08:59:40.323Z,35.33
2018-04-13T09:02:07.844Z,35.30
2018-04-13T09:04:35.365Z,33.40
2018-04-13T09:07:02.887Z,31.30
2018-04-13T09:09:31.270Z,32.97
2018-04-13T09:11:58.777Z,33.03
2018-04-13T09:14:26.305Z,31.55
2018-04-13T09:16:53.864Z,31.27
2018-04-13T09:19:21.419Z,32.05
2018-04-13T09:21:49.026Z,32.33
2018-04-13T09:24:16.689Z,32.28
2018-04-13T09:26:44.218Z,30.15
2018-04-13T09:29:11.765Z,29.77
2018-04-13T09:31:39.289Z,26.75
2018-04-13T09:34:07.354Z,25.85
2018-04-13T09:36:34.979Z,27.25
2018-04-13T09:39:02.532Z,29.45
2018-04-13T09:41:30.073Z,29.63
2018-04-13T09:43:57.588Z,26.83
2018-04-13T09:46:25.117Z,29.20
2018-04-13T09:48:53.204Z,28.35
2018-04-13T09:51:20.751Z,34.88
2018-04-13T09:53:48.394Z,32.15
2018-04-13T09:56:15.904Z,32.20
2018-04-13T09:58:43.421Z,32.22
2018-04-13T10:01:12.851Z,32.40
2018-04-13T10:03:46.004Z,32.58
2018-04-13T10:06:13.521Z,30.60
2018-04-13T10:08:41.063Z,32.03
2018-04-13T10:11:08.584Z,31.62
2018-04-13T10:13:36.138Z,32.17
2018-04-13T10:16:04.433Z,32.72
2018-04-13T10:18:31.961Z,35.78
2018-04-13T10:20:59.477Z,35.42
2018-04-13T10:23:27.001Z,39.08
2018-04-13T10:25:55.290Z,35.70
2018-04-13T10:28:22.812Z,37.67
2018-04-13T10:30:50.336Z,38.08
2018-04-13T10:33:17.854Z,38.58
2018-04-13T10:35:46.156Z,37.70
2018-04-13T10:38:13.667Z,38.90
2018-04-13T10:40:41.236Z,39.53
2018-04-13T10:43:09.059Z,38.50
2018-04-13T10:45:36.618Z,36.40
2018-04-13T10:48:04.140Z,38.80
2018-04-13T10:50:32.444Z,38.10
2018-04-13T10:52:59.971Z,39.58
2018-04-13T10:55:28.271Z,39.95
2018-04-13T10:57:55.806Z,39.40
2018-04-13T11:00:23.439Z,35.10
2018-04-13T11:02:50.965Z,36.10
2018-04-13T11:05:18.514Z,34.85
2018-04-13T11:07:46.045Z,35.13
2018-04-13T11:10:14.374Z,34.90
2018-04-13T11:12:41.873Z,34.63
2018-04-13T11:15:10.200Z,35.40
2018-04-13T11:17:37.718Z,34.92
2018-04-13T11:20:05.294Z,31.15
2018-04-13T11:22:32.827Z,29.52
2018-04-13T11:25:00.361Z,30.37
2018-04-13T11:30:34.074Z,25.62
2018-04-13T11:33:13.322Z,25.95
2018-04-13T11:35:51.101Z,24.45
2018-04-13T11:38:18.708Z,24.08
2018-04-13T11:40:46.269Z,26.10
2018-04-13T11:43:13.806Z,21.73
2018-04-13T11:45:41.341Z,21.05
2018-04-13T11:48:08.859Z,22.70
2018-04-13T11:50:36.383Z,21.60
2018-04-13T11:53:03.934Z,21.30
2018-04-13T11:55:31.513Z,20.30
2018-04-13T11:57:59.029Z,19.30
2018-04-13T12:00:26.598Z,18.58
2018-04-13T12:02:54.133Z,19.08
2018-04-13T12:05:21.675Z,18.10
2018-04-13T12:07:49.988Z,17.02
2018-04-13T12:10:17.507Z,16.55
2018-04-13T12:12:45.823Z,15.40
2018-04-13T12:15:13.316Z,16.90
2018-04-13T12:17:40.834Z,13.93
2018-04-13T12:20:08.341Z,14.82
2018-04-13T12:22:35.885Z,13.52
2018-04-13T12:25:03.384Z,14.02
2018-04-13T12:27:31.689Z,12.52
2018-04-13T12:29:59.219Z,13.60
2018-04-13T12:32:27.603Z,11.70
2018-04-13T12:34:55.164Z,11.57
2018-04-13T12:37:23.466Z,12.73
2018-04-13T12:39:51.000Z,12.63
2018-04-13T12:42:18.531Z,11.12
2018-04-13T12:44:46.097Z,11.77
2018-04-13T12:47:13.625Z,11.48
2018-04-13T12:49:41.131Z,10.93
2018-04-13T12:52:08.673Z,12.60
2018-04-13T12:54:36.384Z,10.63
2018-04-13T12:57:03.786Z,9.40
2018-04-13T12:59:31.319Z,9.60
2018-04-13T13:01:58.828Z,9.65
2018-04-13T13:04:26.353Z,9.88
2018-04-13T13:06:53.892Z,8.38
2018-04-13T13:09:21.445Z,10.15
2018-04-13T13:11:48.962Z,8.10
2018-04-13T13:14:16.504Z,8.10
2018-04-13T13:16:44.017Z,7.28
2018-04-13T13:19:11.583Z,9.25
2018-04-13T13:21:39.090Z,8.15
2018-04-13T13:24:06.607Z,7.28
2018-04-13T13:26:34.134Z,6.97
2018-04-13T13:29:01.665Z,7.40
2018-04-13T13:31:29.203Z,8.02
2018-04-13T13:33:56.747Z,8.45
2018-04-13T13:36:24.296Z,8.50
2018-04-13T13:38:52.004Z,7.45
2018-04-13T13:41:19.554Z,7.53
2018-04-13T13:43:47.072Z,7.28
2018-04-13T13:46:15.432Z,6.60
2018-04-13T13:48:43.702Z,6.70
2018-04-13T13:51:11.220Z,8.20
2018-04-13T13:53:38.834Z,7.03
2018-04-13T13:56:07.100Z,6.22
2018-04-13T13:58:34.629Z,7.30
2018-04-13T14:01:02.133Z,6.35
2018-04-13T14:03:30.439Z,5.57
2018-04-13T14:05:58.002Z,6.57
2018-04-13T14:08:25.642Z,7.20
2018-04-13T14:10:53.160Z,7.45
2018-04-13T14:13:20.749Z,5.55
2018-04-13T14:15:48.268Z,5.00
2018-04-13T14:18:15.799Z,5.43
2018-04-13T14:20:43.309Z,5.65
2018-04-13T14:23:10.851Z,5.85
2018-04-13T14:25:38.370Z,5.95
2018-04-13T14:28:05.953Z,4.60
2018-04-13T14:30:34.210Z,5.18
2018-04-13T14:33:01.745Z,4.90
2018-04-13T14:35:30.052Z,5.18
2018-04-13T14:37:57.604Z,3.92
2018-04-13T14:40:25.156Z,5.78
2018-04-13T14:42:52.665Z,5.22
2018-04-13T14:45:20.216Z,5.85
2018-04-13T14:47:47.740Z,4.65
2018-04-13T14:50:15.318Z,5.20
2018-04-13T14:52:42.856Z,6.03
2018-04-13T14:55:11.135Z,6.22
2018-04-13T14:57:38.668Z,5.10
2018-04-13T15:00:06.197Z,4.95
2018-04-13T15:02:33.775Z,5.60
2018-04-13T15:05:01.297Z,4.45
2018-04-13T15:07:28.827Z,5.62
2018-04-13T15:09:56.377Z,5.05
2018-04-13T15:12:23.950Z,5.75
2018-04-13T15:14:51.476Z,5.37
2018-04-13T15:17:18.988Z,5.30
2018-04-13T15:19:46.493Z,4.87
2018-04-13T15:22:14.035Z,4.75
2018-04-13T15:24:41.540Z,5.62
2018-04-13T15:27:09.598Z,5.30
2018-04-13T15:29:37.121Z,5.45
2018-04-13T15:32:04.645Z,5.15
2018-04-13T15:34:32.155Z,5.12
2018-04-13T15:36:59.674Z,5.82
2018-04-13T15:39:27.179Z,5.62
2018-04-13T15:41:54.695Z,5.65
2018-04-13T15:44:22.195Z,5.40
2018-04-13T15:46:49.866Z,5.05
2018-04-13T15:49:17.385Z,5.55
2018-04-13T15:51:44.890Z,5.45
2018-04-13T15:54:12.498Z,4.78
2018-04-13T15:56:40.022Z,5.10
2018-04-13T15:59:08.302Z,5.20
2018-04-13T16:01:36.675Z,5.28
2018-04-13T16:04:04.267Z,9.40
2018-04-13T16:06:31.803Z,7.05
2018-04-13T16:08:59.306Z,3.45
2018-04-13T16:11:26.904Z,4.07
2018-04-13T16:13:54.515Z,3.03
2018-04-13T16:16:22.032Z,4.47
2018-04-13T16:18:49.557Z,3.60
2018-04-13T16:21:17.094Z,4.00
2018-04-13T16:23:44.616Z,4.70
2018-04-13T16:26:12.888Z,4.62
2018-04-13T16:28:40.448Z,3.80
2018-04-13T16:31:08.029Z,4.40
2018-04-13T16:33:36.431Z,5.20
2018-04-13T16:36:03.957Z,5.05
2018-04-13T16:38:32.297Z,5.35
2018-04-13T16:41:00.977Z,4.18
2018-04-13T16:43:28.541Z,3.30
2018-04-13T16:45:56.095Z,4.40
2018-04-13T16:48:23.627Z,5.15
2018-04-13T16:50:51.198Z,4.55
2018-04-13T16:53:18.718Z,4.43
2018-04-13T16:55:46.262Z,4.82
2018-04-13T16:58:13.882Z,5.12
2018-04-13T17:00:41.466Z,5.15
2018-04-13T17:03:08.973Z,4.85
2018-04-13T17:05:37.300Z,4.07
2018-04-13T17:08:04.845Z,4.65
2018-04-13T17:10:32.349Z,4.90
2018-04-13T17:13:00.676Z,4.72
2018-04-13T17:15:28.271Z,4.95
2018-04-13T17:17:55.822Z,5.62
2018-04-13T17:20:23.357Z,5.45
2018-04-13T17:22:50.906Z,5.65
2018-04-13T17:25:18.428Z,5.22
2018-04-13T17:27:46.067Z,6.62
2018-04-13T17:30:13.590Z,5.15
2018-04-13T17:32:41.149Z,6.40
2018-04-13T17:35:09.099Z,6.57
2018-04-13T17:37:36.606Z,6.12
2018-04-13T17:40:04.127Z,4.85
2018-04-13T17:42:31.665Z,5.53
2018-04-13T17:44:59.247Z,5.30
2018-04-13T17:47:26.795Z,4.85
2018-04-13T17:49:54.329Z,5.75
2018-04-13T17:52:21.865Z,20.83
2018-04-13T17:54:49.482Z,16.77
2018-04-13T17:57:17.037Z,7.43
2018-04-13T17:59:44.602Z,7.22
2018-04-13T18:02:12.921Z,6.68
2018-04-13T18:04:40.430Z,4.82
2018-04-13T18:07:08.000Z,5.15
2018-04-13T18:09:36.307Z,6.32
2018-04-13T18:12:03.837Z,6.80
2018-04-13T18:14:31.524Z,6.78
2018-04-13T18:17:00.004Z,6.07
2018-04-13T18:19:27.596Z,4.93
2018-04-13T18:21:55.158Z,6.90
2018-04-13T18:24:22.803Z,6.60
2018-04-13T18:26:50.315Z,6.15
2018-04-13T18:29:18.624Z,7.43
2018-04-13T18:31:46.163Z,7.35
2018-04-13T18:34:13.741Z,7.85
2018-04-13T18:36:41.301Z,9.35
2018-04-13T18:39:08.852Z,9.82
2018-04-13T18:41:36.393Z,9.80
2018-04-13T18:44:03.931Z,9.60
2018-04-13T18:46:31.455Z,9.65
2018-04-13T18:48:58.990Z,10.70
2018-04-13T18:51:26.523Z,8.45
2018-04-13T18:53:54.826Z,8.02
2018-04-13T18:56:22.342Z,9.32
2018-04-13T18:58:49.901Z,10.98
2018-04-13T19:01:17.458Z,10.30
2018-04-13T19:03:45.003Z,10.43
2018-04-13T19:06:12.550Z,11.27
2018-04-13T19:08:40.114Z,15.40
2018-04-13T19:11:07.663Z,13.23
2018-04-13T19:13:35.202Z,13.65
2018-04-13T19:16:02.760Z,13.82
2018-04-13T19:18:31.041Z,13.10
2018-04-13T19:20:58.588Z,12.10
2018-04-13T19:23:26.116Z,11.57
2018-04-13T19:25:53.641Z,11.63
2018-04-13T19:28:21.197Z,12.45
2018-04-13T19:30:48.734Z,12.43
2018-04-13T19:33:17.009Z,13.77
2018-04-13T19:35:44.526Z,13.10
2018-04-13T19:38:12.509Z,11.40
2018-04-13T19:40:40.366Z,22.23
2018-04-13T19:43:08.828Z,63.30
2018-04-13T19:45:37.007Z,16.80
2018-04-13T19:48:04.950Z,17.05
2018-04-13T19:50:33.398Z,18.00
2018-04-13T19:53:01.122Z,17.10
2018-04-13T19:55:29.138Z,13.35
2018-04-13T19:58:02.599Z,17.05
2018-04-13T20:00:32.614Z,15.20
2018-04-13T20:03:00.144Z,14.32
2018-04-13T20:05:27.677Z,15.85
2018-04-13T20:07:55.959Z,15.25
2018-04-13T20:10:24.952Z,14.50
2018-04-13T20:12:52.493Z,13.82
2018-04-13T20:15:26.750Z,15.40
2018-04-13T20:17:56.600Z,13.85
2018-04-13T20:20:24.295Z,15.52
2018-04-13T20:22:52.638Z,15.63
2018-04-13T20:25:20.120Z,14.40
2018-04-13T20:27:47.690Z,14.27
2018-04-13T20:30:19.049Z,15.98
2018-04-13T20:32:47.824Z,15.77
2018-04-13T20:35:15.737Z,13.75
2018-04-13T20:37:43.398Z,14.60
2018-04-13T20:40:11.745Z,18.30
2018-04-13T20:42:40.038Z,18.33
2018-04-13T20:45:07.601Z,18.30
2018-04-13T20:47:35.154Z,18.33
2018-04-13T20:50:03.544Z,16.70
2018-04-13T20:52:31.292Z,75.03
2018-04-13T20:55:01.530Z,17.10
2018-04-13T20:57:29.434Z,17.65
2018-04-13T20:59:56.944Z,20.67
2018-04-13T21:02:24.595Z,20.27
2018-04-13T21:04:52.946Z,20.67
2018-04-13T21:07:20.501Z,18.70
2018-04-13T21:09:48.046Z,18.42
2018-04-13T21:12:15.572Z,19.35
2018-04-13T21:14:43.098Z,20.53
2018-04-13T21:17:10.712Z,22.30
2018-04-13T21:19:38.249Z,19.50
2018-04-13T21:22:06.549Z,19.25
2018-04-13T21:24:34.077Z,18.87
2018-04-13T21:27:02.450Z,18.08
2018-04-13T21:29:29.961Z,15.60
2018-04-13T21:31:57.477Z,15.52
2018-04-13T21:34:25.794Z,17.25
2018-04-13T21:36:53.319Z,19.85
2018-04-13T21:39:21.645Z,20.20
2018-04-13T21:41:49.187Z,22.60
2018-04-13T21:44:16.725Z,17.30
2018-04-13T21:46:45.005Z,15.43
2018-04-13T21:49:12.523Z,14.10
2018-04-13T21:51:40.048Z,13.57
2018-04-13T21:54:07.563Z,14.60
2018-04-13T21:56:35.833Z,17.60
2018-04-13T21:59:03.367Z,16.00
2018-04-13T22:01:30.917Z,13.23
2018-04-13T22:03:58.457Z,10.73
2018-04-13T22:06:26.059Z,7.85
2018-04-13T22:08:53.605Z,7.30
2018-04-13T22:11:21.205Z,7.70
2018-04-13T22:13:50.537Z,7.65
2018-04-13T22:16:17.389Z,6.30
2018-04-13T22:18:44.902Z,6.20
2018-04-13T22:21:13.323Z,5.85
2018-04-13T22:23:40.833Z,5.90
2018-04-13T22:26:08.340Z,6.53
2018-04-13T22:28:35.888Z,4.68
2018-04-13T22:31:03.407Z,5.30
2018-04-13T22:33:30.967Z,5.28
2018-04-13T22:35:59.754Z,5.75
2018-04-13T22:38:27.279Z,4.80
2018-04-13T22:40:54.987Z,5.10
2018-04-13T22:43:23.308Z,5.32
2018-04-13T22:45:50.813Z,5.05
2018-04-13T22:48:18.380Z,5.50
2018-04-13T22:50:45.917Z,5.65
2018-04-13T22:53:13.826Z,6.70
2018-04-13T22:55:41.926Z,6.90
2018-04-13T22:58:10.321Z,8.93
2018-04-13T23:00:37.825Z,7.78
2018-04-13T23:03:05.328Z,8.68
2018-04-13T23:05:32.869Z,8.05
2018-04-13T23:08:00.371Z,9.20
2018-04-13T23:10:27.939Z,9.07
2018-04-13T23:12:55.472Z,9.63
2018-04-13T23:15:23.024Z,11.45
2018-04-13T23:17:52.948Z,9.60
2018-04-13T23:20:20.502Z,11.15
2018-04-13T23:22:49.104Z,9.77
2018-04-13T23:25:16.898Z,10.85
2018-04-13T23:27:44.434Z,9.25
2018-04-13T23:30:11.964Z,10.77
2018-04-13T23:32:39.560Z,12.88
2018-04-13T23:35:07.085Z,12.02
2018-04-13T23:37:34.607Z,12.70
2018-04-13T23:40:02.138Z,11.52
2018-04-13T23:42:29.657Z,11.68
2018-04-13T23:44:57.214Z,11.10
2018-04-13T23:47:24.889Z,10.15
2018-04-13T23:49:52.491Z,11.50
2018-04-13T23:52:20.025Z,10.18
2018-04-13T23:54:47.554Z,10.73
2018-04-13T23:57:15.076Z,10.30
2018-04-13T23:59:42.805Z,11.00
